Krizevci, Croatia

10:07 AM CEST on October 23, 2014 (GMT +0200)
Cresnjevo | Change Station
CLOSE
Current Station
Personal Weather Station
Location: Črešnjevo, VARAžDINSKA žUPANIJA
Elevation: 636 ft
Nearby Weather Stations

Elev 636 ft 46.25 °N, 16.28 °E | Updated 6 seconds ago

Light Rain
Light Rain
44.8 °F
Feels Like 45 °F
N
0.0
Wind Variable Wind from NW
Gusts 0.0 mph

Today
High -- | Low -- °F
--% Chance of Precip.
Yesterday
High -- | Low -- °F
Precip. -- in
7:21 AM 5:54 PM
Waning Crescent, 0% visible
Pressure 29.74 in
Visibility 6.2 miles
Clouds Few 700 ft
Scattered Clouds 4500 ft
Windchill 45 °F
Dew Point 42 °F
Humidity 91%
Rainfall 0.00 in
Snow Depth Not available.
UV 1 out of 12
Pollen Not available.
Air Quality Not available.
Flu Activity Not available.
METAR LDZA 230800Z VRB02KT 9999 -RA FEW007 SCT045 07/06 Q1007 BECMG 03010KT

More Conditions Fewer Conditions

Pressure 29.74 in
Visibility 6.2 miles
Clouds Few 700 ft
Scattered Clouds 4500 ft
Windchill 45 °F
Dew Point 42 °F
Humidity 91%
Rainfall 0.00 in
Snow Depth Not available.
UV 1 out of 12
Pollen Not available.
Air Quality Not available.
Flu Activity Not available.
METAR LDZA 230800Z VRB02KT 9999 -RA FEW007 SCT045 07/06 Q1007 BECMG 03010KT

More Conditions Fewer Conditions

10-Day Weather Forecast

Almanac

Astronomy

Oct. 23, 2014 Rise Set
Actual Time 7:21 AM CEST 5:54 PM CEST
Civil Twilight 6:50 AM CEST 6:24 PM CEST
Nautical Twilight 6:15 AM CEST 6:59 PM CEST
Astronomical Twilight 5:41 AM CEST 7:34 PM CEST
Moon 6:41 AM CEST 5:46 PM CEST
Length of Visible Light 11h 34m
Length of Day
10h 32m
Tomorrow will be 3m 3s shorter.
Waning Crescent, 0% of the Moon is Illuminated
Today
Waning Crescent
Oct 23
New
Oct 30
First Quarter
Nov 6
Full
Nov 14
Last Quarter

Yesterday's Extremes

Country Highs Country Lows

Community

WunderPhotos

Upload Photos

1,764,194 photos uploaded!

Nearby

Snow Depth

Not available.

Earthquake Activity

City Distance Mag. Time & Date
No recent earthquake activity has been reported nearby.
Minimum magnitude displayed is 2.5.

Coastal Water Temperatures

Place Temperature
No Stations Reporting

Nearby Weather Stations